sensor_id;sensor_type;location;lat;lon;timestamp;temperature;humidity
12708;DHT22;6418;50.824;4.718;2023-09-08T00:00:24;19.30;99.90
12708;DHT22;6418;50.824;4.718;2023-09-08T00:02:51;19.30;99.90
12708;DHT22;6418;50.824;4.718;2023-09-08T00:05:18;19.20;99.90
12708;DHT22;6418;50.824;4.718;2023-09-08T00:07:45;19.20;99.90
12708;DHT22;6418;50.824;4.718;2023-09-08T00:10:14;19.20;99.90
12708;DHT22;6418;50.824;4.718;2023-09-08T00:12:41;19.20;99.90
12708;DHT22;6418;50.824;4.718;2023-09-08T00:15:10;19.20;99.90
12708;DHT22;6418;50.824;4.718;2023-09-08T00:17:37;19.20;99.90
12708;DHT22;6418;50.824;4.718;2023-09-08T00:20:06;19.10;99.90
12708;DHT22;6418;50.824;4.718;2023-09-08T00:22:35;19.00;99.90
12708;DHT22;6418;50.824;4.718;2023-09-08T00:25:02;19.00;99.90
12708;DHT22;6418;50.824;4.718;2023-09-08T00:27:31;19.00;99.90
12708;DHT22;6418;50.824;4.718;2023-09-08T00:29:58;19.00;99.90
12708;DHT22;6418;50.824;4.718;2023-09-08T00:32:27;18.90;99.90
12708;DHT22;6418;50.824;4.718;2023-09-08T00:34:54;18.90;99.90
12708;DHT22;6418;50.824;4.718;2023-09-08T00:37:21;18.90;99.90
12708;DHT22;6418;50.824;4.718;2023-09-08T00:39:48;18.90;99.90
12708;DHT22;6418;50.824;4.718;2023-09-08T00:42:15;18.80;99.90
12708;DHT22;6418;50.824;4.718;2023-09-08T00:44:43;18.80;99.90
12708;DHT22;6418;50.824;4.718;2023-09-08T00:47:10;18.80;99.90
12708;DHT22;6418;50.824;4.718;2023-09-08T00:49:37;18.80;99.90
12708;DHT22;6418;50.824;4.718;2023-09-08T00:52:05;18.70;99.90
12708;DHT22;6418;50.824;4.718;2023-09-08T00:54:32;18.70;99.90
12708;DHT22;6418;50.824;4.718;2023-09-08T00:57:01;18.60;99.90
12708;DHT22;6418;50.824;4.718;2023-09-08T00:59:29;18.60;99.90
12708;DHT22;6418;50.824;4.718;2023-09-08T01:01:59;18.60;99.90
12708;DHT22;6418;50.824;4.718;2023-09-08T01:04:26;18.60;99.90
12708;DHT22;6418;50.824;4.718;2023-09-08T01:06:53;18.60;99.90
12708;DHT22;6418;50.824;4.718;2023-09-08T01:09:21;18.50;99.90
12708;DHT22;6418;50.824;4.718;2023-09-08T01:11:48;18.50;99.90
12708;DHT22;6418;50.824;4.718;2023-09-08T01:14:17;18.50;99.90
12708;DHT22;6418;50.824;4.718;2023-09-08T01:16:45;18.40;99.90
12708;DHT22;6418;50.824;4.718;2023-09-08T01:19:14;18.40;99.90
12708;DHT22;6418;50.824;4.718;2023-09-08T01:21:58;18.40;99.90
12708;DHT22;6418;50.824;4.718;2023-09-08T01:27:45;18.40;99.90
12708;DHT22;6418;50.824;4.718;2023-09-08T01:30:13;18.40;99.90
12708;DHT22;6418;50.824;4.718;2023-09-08T01:32:41;18.30;99.90
12708;DHT22;6418;50.824;4.718;2023-09-08T01:35:08;18.30;99.90
12708;DHT22;6418;50.824;4.718;2023-09-08T01:37:35;18.30;99.90
12708;DHT22;6418;50.824;4.718;2023-09-08T01:40:02;18.30;99.90
12708;DHT22;6418;50.824;4.718;2023-09-08T01:42:29;18.20;99.90
12708;DHT22;6418;50.824;4.718;2023-09-08T01:44:58;18.20;99.90
12708;DHT22;6418;50.824;4.718;2023-09-08T01:47:25;18.20;99.90
12708;DHT22;6418;50.824;4.718;2023-09-08T01:49:52;18.20;99.90
12708;DHT22;6418;50.824;4.718;2023-09-08T01:52:19;18.20;99.90
12708;DHT22;6418;50.824;4.718;2023-09-08T01:54:46;18.20;99.90
12708;DHT22;6418;50.824;4.718;2023-09-08T01:57:13;18.20;99.90
12708;DHT22;6418;50.824;4.718;2023-09-08T01:59:40;18.20;99.90
12708;DHT22;6418;50.824;4.718;2023-09-08T02:02:08;18.10;99.90
12708;DHT22;6418;50.824;4.718;2023-09-08T02:04:35;18.10;99.90
12708;DHT22;6418;50.824;4.718;2023-09-08T02:07:02;18.10;99.90
12708;DHT22;6418;50.824;4.718;2023-09-08T02:09:31;18.00;99.90
12708;DHT22;6418;50.824;4.718;2023-09-08T02:11:58;18.10;99.90
12708;DHT22;6418;50.824;4.718;2023-09-08T02:14:25;18.00;99.90
12708;DHT22;6418;50.824;4.718;2023-09-08T02:16:53;18.10;99.90
12708;DHT22;6418;50.824;4.718;2023-09-08T02:19:21;18.00;99.90
12708;DHT22;6418;50.824;4.718;2023-09-08T02:21:49;18.00;99.90
12708;DHT22;6418;50.824;4.718;2023-09-08T02:24:15;18.00;99.90
12708;DHT22;6418;50.824;4.718;2023-09-08T02:26:42;18.00;99.90
12708;DHT22;6418;50.824;4.718;2023-09-08T02:29:09;18.00;99.90
12708;DHT22;6418;50.824;4.718;2023-09-08T02:31:36;17.90;99.90
12708;DHT22;6418;50.824;4.718;2023-09-08T02:34:03;17.90;99.90
12708;DHT22;6418;50.824;4.718;2023-09-08T02:36:32;17.90;99.90
12708;DHT22;6418;50.824;4.718;2023-09-08T02:38:59;17.90;99.90
12708;DHT22;6418;50.824;4.718;2023-09-08T02:41:26;17.90;99.90
12708;DHT22;6418;50.824;4.718;2023-09-08T02:43:52;17.90;99.90
12708;DHT22;6418;50.824;4.718;2023-09-08T02:46:19;17.90;99.90
12708;DHT22;6418;50.824;4.718;2023-09-08T02:48:46;17.90;99.90
12708;DHT22;6418;50.824;4.718;2023-09-08T02:51:13;17.80;99.90
12708;DHT22;6418;50.824;4.718;2023-09-08T02:53:42;17.80;99.90
12708;DHT22;6418;50.824;4.718;2023-09-08T02:56:09;17.80;99.90
12708;DHT22;6418;50.824;4.718;2023-09-08T02:58:36;17.80;99.90
12708;DHT22;6418;50.824;4.718;2023-09-08T03:01:13;17.80;99.90
12708;DHT22;6418;50.824;4.718;2023-09-08T03:03:41;17.70;99.90
12708;DHT22;6418;50.824;4.718;2023-09-08T03:06:08;17.70;99.90
12708;DHT22;6418;50.824;4.718;2023-09-08T03:08:35;17.70;99.90
12708;DHT22;6418;50.824;4.718;2023-09-08T03:11:05;17.70;99.90
12708;DHT22;6418;50.824;4.718;2023-09-08T03:13:32;17.80;99.90
12708;DHT22;6418;50.824;4.718;2023-09-08T03:16:03;17.60;99.90
12708;DHT22;6418;50.824;4.718;2023-09-08T03:18:31;17.60;99.90
12708;DHT22;6418;50.824;4.718;2023-09-08T03:20:58;17.60;99.90
12708;DHT22;6418;50.824;4.718;2023-09-08T03:23:29;17.60;99.90
12708;DHT22;6418;50.824;4.718;2023-09-08T03:25:55;17.60;99.90
12708;DHT22;6418;50.824;4.718;2023-09-08T03:28:24;17.50;99.90
12708;DHT22;6418;50.824;4.718;2023-09-08T03:30:51;17.50;99.90
12708;DHT22;6418;50.824;4.718;2023-09-08T03:33:18;17.50;99.90
12708;DHT22;6418;50.824;4.718;2023-09-08T03:35:45;17.50;99.90
12708;DHT22;6418;50.824;4.718;2023-09-08T03:38:11;17.50;99.90
12708;DHT22;6418;50.824;4.718;2023-09-08T03:40:38;17.50;99.90
12708;DHT22;6418;50.824;4.718;2023-09-08T03:43:05;17.50;99.90
12708;DHT22;6418;50.824;4.718;2023-09-08T03:45:34;17.50;99.90
12708;DHT22;6418;50.824;4.718;2023-09-08T03:48:01;17.50;99.90
12708;DHT22;6418;50.824;4.718;2023-09-08T03:50:28;17.50;99.90
12708;DHT22;6418;50.824;4.718;2023-09-08T03:52:55;17.40;99.90
12708;DHT22;6418;50.824;4.718;2023-09-08T03:55:22;17.40;99.90
12708;DHT22;6418;50.824;4.718;2023-09-08T03:57:49;17.40;99.90
12708;DHT22;6418;50.824;4.718;2023-09-08T04:00:16;17.40;99.90
12708;DHT22;6418;50.824;4.718;2023-09-08T04:02:48;17.40;99.90
12708;DHT22;6418;50.824;4.718;2023-09-08T04:05:17;17.30;99.90
12708;DHT22;6418;50.824;4.718;2023-09-08T04:07:44;17.30;99.90
12708;DHT22;6418;50.824;4.718;2023-09-08T04:10:11;17.30;99.90
12708;DHT22;6418;50.824;4.718;2023-09-08T04:12:39;17.20;99.90
12708;DHT22;6418;50.824;4.718;2023-09-08T04:15:07;17.20;99.90
12708;DHT22;6418;50.824;4.718;2023-09-08T04:17:34;17.20;99.90
12708;DHT22;6418;50.824;4.718;2023-09-08T04:20:04;17.20;99.90
12708;DHT22;6418;50.824;4.718;2023-09-08T04:22:31;17.20;99.90
12708;DHT22;6418;50.824;4.718;2023-09-08T04:24:58;17.20;99.90
12708;DHT22;6418;50.824;4.718;2023-09-08T04:27:25;17.20;99.90
12708;DHT22;6418;50.824;4.718;2023-09-08T04:29:52;17.20;99.90
12708;DHT22;6418;50.824;4.718;2023-09-08T04:32:19;17.10;99.90
12708;DHT22;6418;50.824;4.718;2023-09-08T04:34:46;17.10;99.90
12708;DHT22;6418;50.824;4.718;2023-09-08T04:37:16;17.10;99.90
12708;DHT22;6418;50.824;4.718;2023-09-08T04:39:43;17.10;99.90
12708;DHT22;6418;50.824;4.718;2023-09-08T04:42:10;17.00;99.90
12708;DHT22;6418;50.824;4.718;2023-09-08T04:44:38;17.00;99.90
12708;DHT22;6418;50.824;4.718;2023-09-08T04:47:05;17.00;99.90
12708;DHT22;6418;50.824;4.718;2023-09-08T04:49:32;17.00;99.90
12708;DHT22;6418;50.824;4.718;2023-09-08T04:51:59;17.00;99.90
12708;DHT22;6418;50.824;4.718;2023-09-08T04:54:27;17.00;99.90
12708;DHT22;6418;50.824;4.718;2023-09-08T04:56:55;17.00;99.90
12708;DHT22;6418;50.824;4.718;2023-09-08T04:59:22;16.90;99.90
12708;DHT22;6418;50.824;4.718;2023-09-08T05:01:49;16.90;99.90
12708;DHT22;6418;50.824;4.718;2023-09-08T05:04:17;16.90;99.90
12708;DHT22;6418;50.824;4.718;2023-09-08T05:06:44;16.90;99.90
12708;DHT22;6418;50.824;4.718;2023-09-08T05:09:12;16.80;99.90
12708;DHT22;6418;50.824;4.718;2023-09-08T05:11:40;16.80;99.90
12708;DHT22;6418;50.824;4.718;2023-09-08T05:14:07;16.80;99.90
12708;DHT22;6418;50.824;4.718;2023-09-08T05:16:34;16.80;99.90
12708;DHT22;6418;50.824;4.718;2023-09-08T05:19:11;16.80;99.90
12708;DHT22;6418;50.824;4.718;2023-09-08T05:21:38;16.80;99.90
12708;DHT22;6418;50.824;4.718;2023-09-08T05:24:06;16.80;99.90
12708;DHT22;6418;50.824;4.718;2023-09-08T05:26:34;16.80;99.90
12708;DHT22;6418;50.824;4.718;2023-09-08T05:29:02;16.80;99.90
12708;DHT22;6418;50.824;4.718;2023-09-08T05:31:29;16.80;99.90
12708;DHT22;6418;50.824;4.718;2023-09-08T05:33:56;16.80;99.90
12708;DHT22;6418;50.824;4.718;2023-09-08T05:36:23;16.80;99.90
12708;DHT22;6418;50.824;4.718;2023-09-08T05:38:50;16.80;99.90
12708;DHT22;6418;50.824;4.718;2023-09-08T05:41:16;16.80;99.90
12708;DHT22;6418;50.824;4.718;2023-09-08T05:43:44;16.80;99.90
12708;DHT22;6418;50.824;4.718;2023-09-08T05:46:13;16.90;99.90
12708;DHT22;6418;50.824;4.718;2023-09-08T05:48:40;16.90;99.90
12708;DHT22;6418;50.824;4.718;2023-09-08T05:51:07;16.90;99.90
12708;DHT22;6418;50.824;4.718;2023-09-08T05:53:34;16.90;99.90
12708;DHT22;6418;50.824;4.718;2023-09-08T05:56:05;16.90;99.90
12708;DHT22;6418;50.824;4.718;2023-09-08T05:58:31;16.90;99.90
12708;DHT22;6418;50.824;4.718;2023-09-08T06:00:59;17.00;99.90
12708;DHT22;6418;50.824;4.718;2023-09-08T06:03:28;17.00;99.90
12708;DHT22;6418;50.824;4.718;2023-09-08T06:05:55;17.00;99.90
12708;DHT22;6418;50.824;4.718;2023-09-08T06:08:22;17.00;99.90
12708;DHT22;6418;50.824;4.718;2023-09-08T06:10:50;17.10;99.90
12708;DHT22;6418;50.824;4.718;2023-09-08T06:13:17;17.10;99.90
12708;DHT22;6418;50.824;4.718;2023-09-08T06:15:44;17.10;99.90
12708;DHT22;6418;50.824;4.718;2023-09-08T06:18:11;17.10;99.90
12708;DHT22;6418;50.824;4.718;2023-09-08T06:20:45;17.20;99.90
12708;DHT22;6418;50.824;4.718;2023-09-08T06:23:12;17.30;99.90
12708;DHT22;6418;50.824;4.718;2023-09-08T06:25:39;17.30;99.90
12708;DHT22;6418;50.824;4.718;2023-09-08T06:28:07;17.30;99.90
12708;DHT22;6418;50.824;4.718;2023-09-08T06:30:33;17.30;99.90
12708;DHT22;6418;50.824;4.718;2023-09-08T06:33:00;17.30;99.90
12708;DHT22;6418;50.824;4.718;2023-09-08T06:35:27;17.40;99.90
12708;DHT22;6418;50.824;4.718;2023-09-08T06:37:56;17.40;99.90
12708;DHT22;6418;50.824;4.718;2023-09-08T06:40:23;17.40;99.90
12708;DHT22;6418;50.824;4.718;2023-09-08T06:42:50;17.60;99.90
12708;DHT22;6418;50.824;4.718;2023-09-08T06:45:17;17.60;99.90
12708;DHT22;6418;50.824;4.718;2023-09-08T06:47:44;17.60;99.90
12708;DHT22;6418;50.824;4.718;2023-09-08T06:50:11;17.70;99.90
12708;DHT22;6418;50.824;4.718;2023-09-08T06:52:38;17.80;99.90
12708;DHT22;6418;50.824;4.718;2023-09-08T06:55:07;17.90;99.90
12708;DHT22;6418;50.824;4.718;2023-09-08T06:57:35;17.90;99.90
12708;DHT22;6418;50.824;4.718;2023-09-08T07:00:02;18.00;99.90
12708;DHT22;6418;50.824;4.718;2023-09-08T07:02:32;18.10;99.90
12708;DHT22;6418;50.824;4.718;2023-09-08T07:04:59;18.20;99.90
12708;DHT22;6418;50.824;4.718;2023-09-08T07:07:26;18.30;99.90
12708;DHT22;6418;50.824;4.718;2023-09-08T07:09:53;18.40;99.90
12708;DHT22;6418;50.824;4.718;2023-09-08T07:12:21;18.40;99.90
12708;DHT22;6418;50.824;4.718;2023-09-08T07:14:48;18.50;99.90
12708;DHT22;6418;50.824;4.718;2023-09-08T07:17:15;18.60;99.90
12708;DHT22;6418;50.824;4.718;2023-09-08T07:19:42;18.70;99.90
12708;DHT22;6418;50.824;4.718;2023-09-08T07:22:09;18.80;99.90
12708;DHT22;6418;50.824;4.718;2023-09-08T07:24:36;18.90;99.90
12708;DHT22;6418;50.824;4.718;2023-09-08T07:27:03;19.00;99.90
12708;DHT22;6418;50.824;4.718;2023-09-08T07:29:31;19.10;99.90
12708;DHT22;6418;50.824;4.718;2023-09-08T07:31:59;19.10;99.90
12708;DHT22;6418;50.824;4.718;2023-09-08T07:34:26;19.30;99.90
12708;DHT22;6418;50.824;4.718;2023-09-08T07:36:53;19.30;99.90
12708;DHT22;6418;50.824;4.718;2023-09-08T07:39:20;19.40;99.90
12708;DHT22;6418;50.824;4.718;2023-09-08T07:41:47;19.50;99.90
12708;DHT22;6418;50.824;4.718;2023-09-08T07:44:14;19.60;99.90
12708;DHT22;6418;50.824;4.718;2023-09-08T07:46:42;19.70;99.90
12708;DHT22;6418;50.824;4.718;2023-09-08T07:49:11;19.70;99.90
12708;DHT22;6418;50.824;4.718;2023-09-08T07:51:38;19.80;99.90
12708;DHT22;6418;50.824;4.718;2023-09-08T07:54:05;19.90;99.90
12708;DHT22;6418;50.824;4.718;2023-09-08T07:56:32;20.00;99.90
12708;DHT22;6418;50.824;4.718;2023-09-08T07:58:59;20.10;99.90
12708;DHT22;6418;50.824;4.718;2023-09-08T08:01:26;20.20;99.90
12708;DHT22;6418;50.824;4.718;2023-09-08T08:03:54;20.20;99.90
12708;DHT22;6418;50.824;4.718;2023-09-08T08:06:21;20.30;99.90
12708;DHT22;6418;50.824;4.718;2023-09-08T08:08:48;20.40;99.90
12708;DHT22;6418;50.824;4.718;2023-09-08T08:11:16;20.50;99.90
12708;DHT22;6418;50.824;4.718;2023-09-08T08:13:43;20.50;99.90
12708;DHT22;6418;50.824;4.718;2023-09-08T08:16:10;20.70;99.90
12708;DHT22;6418;50.824;4.718;2023-09-08T08:18:37;20.70;99.90
12708;DHT22;6418;50.824;4.718;2023-09-08T08:21:06;20.80;99.90
12708;DHT22;6418;50.824;4.718;2023-09-08T08:23:32;20.90;99.90
12708;DHT22;6418;50.824;4.718;2023-09-08T08:26:00;20.90;99.90
12708;DHT22;6418;50.824;4.718;2023-09-08T08:28:28;21.00;99.90
12708;DHT22;6418;50.824;4.718;2023-09-08T08:30:55;21.10;99.90
12708;DHT22;6418;50.824;4.718;2023-09-08T08:33:23;21.20;99.90
12708;DHT22;6418;50.824;4.718;2023-09-08T08:35:52;21.30;99.90
12708;DHT22;6418;50.824;4.718;2023-09-08T08:38:20;21.40;99.90
12708;DHT22;6418;50.824;4.718;2023-09-08T08:40:47;21.50;99.90
12708;DHT22;6418;50.824;4.718;2023-09-08T08:43:14;21.60;99.90
12708;DHT22;6418;50.824;4.718;2023-09-08T08:45:42;21.70;99.90
12708;DHT22;6418;50.824;4.718;2023-09-08T08:48:10;21.80;99.90
12708;DHT22;6418;50.824;4.718;2023-09-08T08:50:42;21.80;99.90
12708;DHT22;6418;50.824;4.718;2023-09-08T08:53:10;21.90;99.90
12708;DHT22;6418;50.824;4.718;2023-09-08T08:55:40;22.00;99.90
12708;DHT22;6418;50.824;4.718;2023-09-08T08:58:07;22.10;99.90
12708;DHT22;6418;50.824;4.718;2023-09-08T09:00:35;22.10;99.90
12708;DHT22;6418;50.824;4.718;2023-09-08T09:03:05;22.20;99.90
12708;DHT22;6418;50.824;4.718;2023-09-08T09:05:33;22.30;99.90
12708;DHT22;6418;50.824;4.718;2023-09-08T09:08:01;22.40;99.90
12708;DHT22;6418;50.824;4.718;2023-09-08T09:10:30;22.40;99.90
12708;DHT22;6418;50.824;4.718;2023-09-08T09:12:59;22.50;99.90
12708;DHT22;6418;50.824;4.718;2023-09-08T09:15:29;22.50;99.90
12708;DHT22;6418;50.824;4.718;2023-09-08T09:18:03;22.60;99.90
12708;DHT22;6418;50.824;4.718;2023-09-08T09:20:31;22.60;99.90
12708;DHT22;6418;50.824;4.718;2023-09-08T09:22:58;22.70;99.90
12708;DHT22;6418;50.824;4.718;2023-09-08T09:25:27;22.70;99.90
12708;DHT22;6418;50.824;4.718;2023-09-08T09:27:55;22.80;99.90
12708;DHT22;6418;50.824;4.718;2023-09-08T09:30:24;22.90;99.90
12708;DHT22;6418;50.824;4.718;2023-09-08T09:32:59;23.10;99.90
12708;DHT22;6418;50.824;4.718;2023-09-08T09:35:40;23.20;99.90
12708;DHT22;6418;50.824;4.718;2023-09-08T09:38:07;23.20;99.90
12708;DHT22;6418;50.824;4.718;2023-09-08T09:40:35;23.20;99.90
12708;DHT22;6418;50.824;4.718;2023-09-08T09:43:02;23.30;99.90
12708;DHT22;6418;50.824;4.718;2023-09-08T09:45:31;23.40;99.90
12708;DHT22;6418;50.824;4.718;2023-09-08T09:47:59;23.40;99.90
12708;DHT22;6418;50.824;4.718;2023-09-08T09:50:29;23.50;99.90
12708;DHT22;6418;50.824;4.718;2023-09-08T09:52:59;23.60;99.90
12708;DHT22;6418;50.824;4.718;2023-09-08T09:55:27;23.70;99.90
12708;DHT22;6418;50.824;4.718;2023-09-08T09:57:56;23.70;99.90
12708;DHT22;6418;50.824;4.718;2023-09-08T10:00:26;23.70;99.90
12708;DHT22;6418;50.824;4.718;2023-09-08T10:02:55;23.80;99.90
12708;DHT22;6418;50.824;4.718;2023-09-08T10:05:24;23.90;99.90
12708;DHT22;6418;50.824;4.718;2023-09-08T10:07:51;23.90;99.90
12708;DHT22;6418;50.824;4.718;2023-09-08T10:10:20;24.00;99.90
12708;DHT22;6418;50.824;4.718;2023-09-08T10:12:52;24.10;99.90
12708;DHT22;6418;50.824;4.718;2023-09-08T10:15:21;24.20;99.90
12708;DHT22;6418;50.824;4.718;2023-09-08T10:17:55;24.20;99.90
12708;DHT22;6418;50.824;4.718;2023-09-08T10:20:23;24.20;99.90
12708;DHT22;6418;50.824;4.718;2023-09-08T10:22:54;24.30;99.90
12708;DHT22;6418;50.824;4.718;2023-09-08T10:25:24;24.40;99.90
12708;DHT22;6418;50.824;4.718;2023-09-08T10:27:51;24.50;99.90
12708;DHT22;6418;50.824;4.718;2023-09-08T10:30:20;24.60;99.90
12708;DHT22;6418;50.824;4.718;2023-09-08T10:32:48;24.60;99.90
12708;DHT22;6418;50.824;4.718;2023-09-08T10:35:18;24.70;99.90
12708;DHT22;6418;50.824;4.718;2023-09-08T10:37:45;24.70;99.90
12708;DHT22;6418;50.824;4.718;2023-09-08T10:40:22;24.70;99.90
12708;DHT22;6418;50.824;4.718;2023-09-08T10:42:51;24.70;99.90
12708;DHT22;6418;50.824;4.718;2023-09-08T10:45:32;24.80;99.90
12708;DHT22;6418;50.824;4.718;2023-09-08T10:47:59;24.90;99.90
12708;DHT22;6418;50.824;4.718;2023-09-08T10:50:34;24.90;99.90
12708;DHT22;6418;50.824;4.718;2023-09-08T10:53:07;24.90;99.90
12708;DHT22;6418;50.824;4.718;2023-09-08T10:55:37;25.00;99.90
12708;DHT22;6418;50.824;4.718;2023-09-08T10:58:06;25.00;99.90
12708;DHT22;6418;50.824;4.718;2023-09-08T11:00:46;25.10;99.90
12708;DHT22;6418;50.824;4.718;2023-09-08T11:03:14;25.20;99.90
12708;DHT22;6418;50.824;4.718;2023-09-08T11:05:53;25.30;99.90
12708;DHT22;6418;50.824;4.718;2023-09-08T11:08:20;25.40;99.90
12708;DHT22;6418;50.824;4.718;2023-09-08T11:10:47;25.50;99.90
12708;DHT22;6418;50.824;4.718;2023-09-08T11:13:13;25.50;99.90
12708;DHT22;6418;50.824;4.718;2023-09-08T11:15:40;25.50;99.90
12708;DHT22;6418;50.824;4.718;2023-09-08T11:18:08;25.50;99.90
12708;DHT22;6418;50.824;4.718;2023-09-08T11:20:35;25.70;99.90
12708;DHT22;6418;50.824;4.718;2023-09-08T11:23:04;25.70;99.90
12708;DHT22;6418;50.824;4.718;2023-09-08T11:25:32;25.70;99.90
12708;DHT22;6418;50.824;4.718;2023-09-08T11:28:00;25.80;99.90
12708;DHT22;6418;50.824;4.718;2023-09-08T11:30:28;25.80;99.90
12708;DHT22;6418;50.824;4.718;2023-09-08T11:32:55;25.90;99.90
12708;DHT22;6418;50.824;4.718;2023-09-08T11:35:27;25.90;99.90
12708;DHT22;6418;50.824;4.718;2023-09-08T11:37:59;25.90;99.90
12708;DHT22;6418;50.824;4.718;2023-09-08T11:40:30;26.00;99.90
12708;DHT22;6418;50.824;4.718;2023-09-08T11:42:58;26.10;99.90
12708;DHT22;6418;50.824;4.718;2023-09-08T11:45:25;26.10;99.90
12708;DHT22;6418;50.824;4.718;2023-09-08T11:47:53;26.10;99.90
12708;DHT22;6418;50.824;4.718;2023-09-08T11:50:22;26.20;99.90
12708;DHT22;6418;50.824;4.718;2023-09-08T11:52:50;26.20;99.90
12708;DHT22;6418;50.824;4.718;2023-09-08T11:55:19;26.20;99.90
12708;DHT22;6418;50.824;4.718;2023-09-08T11:57:49;26.20;99.90
12708;DHT22;6418;50.824;4.718;2023-09-08T12:00:18;26.30;99.90
12708;DHT22;6418;50.824;4.718;2023-09-08T12:02:46;26.30;99.90
12708;DHT22;6418;50.824;4.718;2023-09-08T12:05:20;26.40;99.90
12708;DHT22;6418;50.824;4.718;2023-09-08T12:07:47;26.50;99.90
12708;DHT22;6418;50.824;4.718;2023-09-08T12:10:14;26.50;99.90
12708;DHT22;6418;50.824;4.718;2023-09-08T12:12:44;26.60;99.90
12708;DHT22;6418;50.824;4.718;2023-09-08T12:15:29;26.60;99.90
12708;DHT22;6418;50.824;4.718;2023-09-08T12:17:57;26.70;99.90
12708;DHT22;6418;50.824;4.718;2023-09-08T12:20:24;26.80;99.90
12708;DHT22;6418;50.824;4.718;2023-09-08T12:22:52;26.80;99.90
12708;DHT22;6418;50.824;4.718;2023-09-08T12:25:19;26.90;99.90
12708;DHT22;6418;50.824;4.718;2023-09-08T12:27:49;26.90;99.90
12708;DHT22;6418;50.824;4.718;2023-09-08T12:30:19;27.00;99.90
12708;DHT22;6418;50.824;4.718;2023-09-08T12:32:48;27.10;99.90
12708;DHT22;6418;50.824;4.718;2023-09-08T12:35:20;27.10;99.90
12708;DHT22;6418;50.824;4.718;2023-09-08T12:37:52;27.20;99.90
12708;DHT22;6418;50.824;4.718;2023-09-08T12:40:20;27.20;99.90
12708;DHT22;6418;50.824;4.718;2023-09-08T12:42:46;27.20;99.90
12708;DHT22;6418;50.824;4.718;2023-09-08T12:45:14;27.30;99.90
12708;DHT22;6418;50.824;4.718;2023-09-08T12:47:42;27.40;99.90
12708;DHT22;6418;50.824;4.718;2023-09-08T12:50:10;27.50;99.90
12708;DHT22;6418;50.824;4.718;2023-09-08T12:52:38;27.50;99.90
12708;DHT22;6418;50.824;4.718;2023-09-08T12:55:06;27.50;99.90
12708;DHT22;6418;50.824;4.718;2023-09-08T12:57:33;27.60;99.90
12708;DHT22;6418;50.824;4.718;2023-09-08T13:00:00;27.60;99.90
12708;DHT22;6418;50.824;4.718;2023-09-08T13:02:27;27.70;99.90
12708;DHT22;6418;50.824;4.718;2023-09-08T13:04:56;27.70;99.90
12708;DHT22;6418;50.824;4.718;2023-09-08T13:07:24;27.70;99.90
12708;DHT22;6418;50.824;4.718;2023-09-08T13:09:51;27.80;99.90
12708;DHT22;6418;50.824;4.718;2023-09-08T13:12:18;27.80;99.90
12708;DHT22;6418;50.824;4.718;2023-09-08T13:14:45;27.90;99.90
12708;DHT22;6418;50.824;4.718;2023-09-08T13:17:13;27.90;99.90
12708;DHT22;6418;50.824;4.718;2023-09-08T13:19:40;28.00;99.90
12708;DHT22;6418;50.824;4.718;2023-09-08T13:22:09;28.00;99.90
12708;DHT22;6418;50.824;4.718;2023-09-08T13:24:39;28.00;99.90
12708;DHT22;6418;50.824;4.718;2023-09-08T13:27:06;28.10;99.90
12708;DHT22;6418;50.824;4.718;2023-09-08T13:29:33;28.10;99.90
12708;DHT22;6418;50.824;4.718;2023-09-08T13:32:00;28.10;99.90
12708;DHT22;6418;50.824;4.718;2023-09-08T13:34:27;28.20;99.90
12708;DHT22;6418;50.824;4.718;2023-09-08T13:36:54;28.20;99.90
12708;DHT22;6418;50.824;4.718;2023-09-08T13:39:22;28.20;99.90
12708;DHT22;6418;50.824;4.718;2023-09-08T13:41:50;28.30;99.90
12708;DHT22;6418;50.824;4.718;2023-09-08T13:44:18;28.40;99.90
12708;DHT22;6418;50.824;4.718;2023-09-08T13:46:46;28.50;99.90
12708;DHT22;6418;50.824;4.718;2023-09-08T13:49:13;28.40;99.90
12708;DHT22;6418;50.824;4.718;2023-09-08T13:51:40;28.50;99.90
12708;DHT22;6418;50.824;4.718;2023-09-08T13:54:08;28.50;99.90
12708;DHT22;6418;50.824;4.718;2023-09-08T13:56:38;28.60;99.90
12708;DHT22;6418;50.824;4.718;2023-09-08T13:59:06;28.60;99.90
12708;DHT22;6418;50.824;4.718;2023-09-08T14:01:33;28.70;99.90
12708;DHT22;6418;50.824;4.718;2023-09-08T14:04:00;28.70;99.90
12708;DHT22;6418;50.824;4.718;2023-09-08T14:06:27;28.80;99.90
12708;DHT22;6418;50.824;4.718;2023-09-08T14:08:55;28.80;99.90
12708;DHT22;6418;50.824;4.718;2023-09-08T14:11:22;28.90;99.90
12708;DHT22;6418;50.824;4.718;2023-09-08T14:13:51;29.00;99.90
12708;DHT22;6418;50.824;4.718;2023-09-08T14:16:18;29.00;99.90
12708;DHT22;6418;50.824;4.718;2023-09-08T14:18:45;29.00;99.90
12708;DHT22;6418;50.824;4.718;2023-09-08T14:21:12;29.10;99.90
12708;DHT22;6418;50.824;4.718;2023-09-08T14:23:39;29.20;99.90
12708;DHT22;6418;50.824;4.718;2023-09-08T14:26:07;29.20;99.90
12708;DHT22;6418;50.824;4.718;2023-09-08T14:28:34;29.20;99.90
12708;DHT22;6418;50.824;4.718;2023-09-08T14:31:03;29.30;99.90
12708;DHT22;6418;50.824;4.718;2023-09-08T14:33:31;29.40;99.90
12708;DHT22;6418;50.824;4.718;2023-09-08T14:35:57;29.40;99.90
12708;DHT22;6418;50.824;4.718;2023-09-08T14:38:25;29.50;99.90
12708;DHT22;6418;50.824;4.718;2023-09-08T14:40:56;29.50;99.90
12708;DHT22;6418;50.824;4.718;2023-09-08T14:43:23;29.60;99.90
12708;DHT22;6418;50.824;4.718;2023-09-08T14:45:51;29.70;99.90
12708;DHT22;6418;50.824;4.718;2023-09-08T14:48:19;29.70;99.90
12708;DHT22;6418;50.824;4.718;2023-09-08T14:50:46;29.80;99.90
12708;DHT22;6418;50.824;4.718;2023-09-08T14:53:13;29.80;99.90
12708;DHT22;6418;50.824;4.718;2023-09-08T14:55:41;29.90;99.90
12708;DHT22;6418;50.824;4.718;2023-09-08T14:58:10;29.90;99.90
12708;DHT22;6418;50.824;4.718;2023-09-08T15:00:38;30.00;99.90
12708;DHT22;6418;50.824;4.718;2023-09-08T15:03:05;30.10;99.90
12708;DHT22;6418;50.824;4.718;2023-09-08T15:05:34;30.20;99.90
12708;DHT22;6418;50.824;4.718;2023-09-08T15:08:02;30.20;99.90
12708;DHT22;6418;50.824;4.718;2023-09-08T15:10:29;30.30;99.90
12708;DHT22;6418;50.824;4.718;2023-09-08T15:12:56;30.40;99.90
12708;DHT22;6418;50.824;4.718;2023-09-08T15:15:23;30.40;99.90
12708;DHT22;6418;50.824;4.718;2023-09-08T15:17:51;30.50;99.90
12708;DHT22;6418;50.824;4.718;2023-09-08T15:20:18;30.60;99.90
12708;DHT22;6418;50.824;4.718;2023-09-08T15:22:46;30.70;99.90
12708;DHT22;6418;50.824;4.718;2023-09-08T15:25:13;30.90;99.90
12708;DHT22;6418;50.824;4.718;2023-09-08T15:27:40;31.10;99.90
12708;DHT22;6418;50.824;4.718;2023-09-08T15:30:09;31.50;99.90
12708;DHT22;6418;50.824;4.718;2023-09-08T15:32:37;31.80;99.90
12708;DHT22;6418;50.824;4.718;2023-09-08T15:35:05;32.10;99.90
12708;DHT22;6418;50.824;4.718;2023-09-08T15:37:32;32.50;99.90
12708;DHT22;6418;50.824;4.718;2023-09-08T15:40:01;32.80;99.90
12708;DHT22;6418;50.824;4.718;2023-09-08T15:42:29;33.10;99.90
12708;DHT22;6418;50.824;4.718;2023-09-08T15:44:56;33.40;99.90
12708;DHT22;6418;50.824;4.718;2023-09-08T15:47:23;33.70;99.90
12708;DHT22;6418;50.824;4.718;2023-09-08T15:49:50;34.00;99.90
12708;DHT22;6418;50.824;4.718;2023-09-08T15:52:18;34.20;99.90